Terminal Aerodrome Forecast
Issued by NWS

Home | Current Version | Previous Version | Text Only | Print | Product List | Glossary On
Versions: 1 2 3 4 5 6 7 8 9 10 11 12 13 14 15 16 17 18
000
FTUS46 KSEW 051127
TAFBFI
TAF
KBFI 051127Z 0512/0612 13003KT P6SM SKC
      TEMPO 0513/0517 BKN011 OVC050
     FM051700 19007KT P6SM SCT060
     FM060200 VRB04KT P6SM FEW090=

USA.gov is the U.S. government's official web portal to all federal, state and local government web resources and services.